Groningen, Minnesota
Current Conditions -  °F | °C
As of 8:14 PM on Thursday 18 Dec 2014 (Local Time) from K04W Reporting Station
Overcast Overcast  
Wind Chill: 23°   Ceiling: 900
Heat Index: 23°   Visibility: 10mi
Dew Point: 19°   Wind: 0mph
Humidity: 86%   Direction: NA
Pressure: 30.25"   Gusts: NA
Location:  46.138°N, 92.5611°W
Report Text: K04W 190214Z AUTO 00000KT 10SM OVC009 M05/M07 A3025 RMK AO2
Loading
Personal Weather Stations






























Interactive Weather Map New forecast layout! Learn more

10-Day Weather Forecast

Advertisements
Track Severe Weather on mobile